Time;durP1;ratioP1;P1;durP2;ratioP2;P2;SDS_P1;SDS_P2;PMS_P1;PMS_P2;Temp;Humidity;BMP_temperature;BMP_pressure;BME280_temperature;BME280_humidity;BME280_pressure;Samples;Min_cycle;Max_cycle;Signal;HPM_P1;HPM_P2
2023/02/08 00:00:00;;;;;;;18.80;10.90;;;;;;;-0.08;100.00;103913.22;5031804;28;20056;-67
2023/02/08 00:02:26;;;;;;;17.58;11.40;;;;;;;-0.12;100.00;103908.91;5018681;28;20518;-67
2023/02/08 00:04:52;;;;;;;17.38;11.85;;;;;;;-0.12;100.00;103908.91;5027604;28;20050;-65
2023/02/08 00:07:19;;;;;;;15.77;10.77;;;;;;;-0.15;100.00;103911.50;5025940;28;20053;-66
2023/02/08 00:09:45;;;;;;;20.63;11.60;;;;;;;-0.16;100.00;103914.06;5034856;28;20587;-65
2023/02/08 00:12:12;;;;;;;19.35;11.05;;;;;;;-0.22;100.00;103905.50;5034648;28;20049;-65
2023/02/08 00:14:38;;;;;;;16.75;11.23;;;;;;;-0.22;100.00;103914.94;5028292;28;20080;-66
2023/02/08 00:17:04;;;;;;;18.23;11.25;;;;;;;-0.22;100.00;103904.63;5032297;28;20138;-66
2023/02/08 00:19:31;;;;;;;14.63;9.65;;;;;;;-0.21;100.00;103911.50;5039735;28;20071;-65
2023/02/08 00:21:57;;;;;;;18.98;10.63;;;;;;;-0.24;100.00;103904.59;5030822;28;20049;-64
2023/02/08 00:24:23;;;;;;;17.15;11.00;;;;;;;-0.26;100.00;103901.16;5023888;28;20058;-65
2023/02/08 00:26:50;;;;;;;16.33;10.25;;;;;;;-0.29;100.00;103901.19;5028912;28;20266;-64
2023/02/08 00:29:16;;;;;;;15.77;10.23;;;;;;;-0.32;100.00;103895.16;5030124;28;20498;-67
2023/02/08 00:31:43;;;;;;;21.75;11.98;;;;;;;-0.37;100.00;103895.19;5036547;28;20049;-67
2023/02/08 00:34:09;;;;;;;18.05;10.88;;;;;;;-0.33;100.00;103894.31;5029897;28;20057;-67
2023/02/08 00:36:36;;;;;;;17.70;11.25;;;;;;;-0.35;100.00;103896.03;5041520;28;20044;-67
2023/02/08 00:39:02;;;;;;;16.05;10.80;;;;;;;-0.33;100.00;103902.06;5003617;28;20067;-68
2023/02/08 00:41:29;;;;;;;20.75;11.45;;;;;;;-0.34;100.00;103902.03;5032435;28;20084;-68
2023/02/08 00:43:55;;;;;;;18.17;11.15;;;;;;;-0.34;100.00;103897.75;5033777;28;20432;-68
2023/02/08 00:46:22;;;;;;;17.58;11.32;;;;;;;-0.29;100.00;103893.44;5025144;28;20056;-68
2023/02/08 00:48:48;;;;;;;19.33;10.73;;;;;;;-0.31;100.00;103886.59;5038131;28;20057;-68
2023/02/08 00:51:15;;;;;;;15.40;10.30;;;;;;;-0.32;100.00;103890.00;5037111;28;20055;-68
2023/02/08 00:53:44;;;;;;;20.25;11.40;;;;;;;-0.31;100.00;103891.75;5023827;28;20587;-67
2023/02/08 00:56:12;;;;;;;16.67;10.57;;;;;;;-0.32;100.00;103888.28;5024953;28;20057;-68
2023/02/08 00:58:39;;;;;;;18.57;11.53;;;;;;;-0.30;100.00;103889.13;5025719;28;20413;-67
2023/02/08 01:01:06;;;;;;;14.95;10.07;;;;;;;-0.29;100.00;103885.72;5038806;28;20049;-68
2023/02/08 01:03:34;;;;;;;16.52;9.65;;;;;;;-0.31;100.00;103881.44;5030687;28;20488;-68
2023/02/08 01:06:03;;;;;;;18.83;12.00;;;;;;;-0.31;100.00;103881.44;5031122;28;20056;-67
2023/02/08 01:08:30;;;;;;;18.77;11.35;;;;;;;-0.35;100.00;103880.56;5003607;28;20045;-68
2023/02/08 01:11:24;;;;;;;15.27;10.30;;;;;;;-0.33;100.00;103881.41;5032439;28;20060;-68
2023/02/08 01:13:53;;;;;;;18.85;10.85;;;;;;;-0.40;100.00;103871.94;5030451;28;20581;-67
2023/02/08 01:16:22;;;;;;;16.38;10.93;;;;;;;-0.39;100.00;103876.25;5045052;28;20118;-68
2023/02/08 01:18:51;;;;;;;17.48;11.35;;;;;;;-0.37;100.00;103873.66;5028267;28;20053;-68
2023/02/08 01:21:20;;;;;;;16.52;10.25;;;;;;;-0.37;100.00;103876.25;5048770;28;20056;-68
2023/02/08 01:23:47;;;;;;;19.58;11.65;;;;;;;-0.43;100.00;103877.97;5035698;28;20537;-68
2023/02/08 01:26:15;;;;;;;16.95;10.63;;;;;;;-0.44;100.00;103886.56;5029726;28;20063;-68
2023/02/08 01:28:42;;;;;;;16.98;10.75;;;;;;;-0.46;100.00;103872.81;5032795;28;20153;-68
2023/02/08 01:31:12;;;;;;;17.38;10.48;;;;;;;-0.44;100.00;103877.97;5024753;28;20045;-68
2023/02/08 01:33:39;;;;;;;18.73;11.35;;;;;;;-0.46;100.00;103874.53;5033643;28;20057;-68
2023/02/08 01:36:06;;;;;;;15.95;10.88;;;;;;;-0.46;100.00;103871.97;5030493;28;20057;-68
2023/02/08 01:38:34;;;;;;;18.00;11.35;;;;;;;-0.44;100.00;103872.81;5027910;28;20051;-68
2023/02/08 01:41:01;;;;;;;17.20;11.52;;;;;;;-0.45;100.00;103874.53;5034315;28;20124;-68
2023/02/08 01:43:34;;;;;;;19.63;11.43;;;;;;;-0.43;100.00;103874.56;5008720;28;20045;-68
2023/02/08 01:46:00;;;;;;;16.08;10.98;;;;;;;-0.47;100.00;103876.25;5037853;28;20053;-67
2023/02/08 01:48:30;;;;;;;15.40;10.07;;;;;;;-0.48;100.00;103882.25;5033479;28;20425;-68
2023/02/08 01:51:08;;;;;;;15.88;10.68;;;;;;;-0.49;100.00;103870.25;5028234;28;20057;-68
2023/02/08 01:53:34;;;;;;;17.70;10.83;;;;;;;-0.54;100.00;103879.69;5030291;28;20055;-67
2023/02/08 01:56:05;;;;;;;18.17;11.30;;;;;;;-0.55;100.00;103872.81;5035189;28;20049;-68
2023/02/08 01:58:37;;;;;;;17.30;11.07;;;;;;;-0.55;100.00;103869.38;5043282;28;20421;-68
2023/02/08 02:01:04;;;;;;;16.77;10.23;;;;;;;-0.59;100.00;103865.91;5029419;28;20048;-67
2023/02/08 02:03:31;;;;;;;16.73;10.85;;;;;;;-0.59;100.00;103863.34;5041823;28;20040;-67
2023/02/08 02:06:04;;;;;;;20.00;11.18;;;;;;;-0.54;100.00;103863.38;5017272;28;20049;-68
2023/02/08 02:08:31;;;;;;;20.17;11.75;;;;;;;-0.56;100.00;103868.53;5017328;28;20053;-68
2023/02/08 02:10:57;;;;;;;18.45;11.00;;;;;;;-0.56;100.00;103865.09;5041806;28;20061;-68
2023/02/08 02:13:26;;;;;;;17.20;11.02;;;;;;;-0.56;100.00;103865.09;5032905;28;20045;-68
2023/02/08 02:15:53;;;;;;;17.65;11.23;;;;;;;-0.55;100.00;103864.22;5043598;28;20049;-67
2023/02/08 02:18:25;;;;;;;16.15;10.88;;;;;;;-0.55;100.00;103857.31;5030688;28;20697;-68
2023/02/08 02:21:07;;;;;;;20.33;10.73;;;;;;;-0.53;100.00;103865.94;5027412;28;20053;-68
2023/02/08 02:24:09;;;;;;;16.48;10.60;;;;;;;-0.55;100.00;103865.06;5011036;28;20131;-68
2023/02/08 02:27:13;;;;;;;15.40;10.38;;;;;;;-0.51;100.00;103859.06;5040621;28;20049;-68
2023/02/08 02:30:26;;;;;;;16.90;10.38;;;;;;;-0.54;100.00;103860.78;5027086;28;20421;-68
2023/02/08 02:33:16;;;;;;;17.00;10.40;;;;;;;-0.56;100.00;103863.34;5033590;28;20050;-69
2023/02/08 02:36:01;;;;;;;17.60;10.77;;;;;;;-0.56;100.00;103862.50;5028183;28;20073;-68
2023/02/08 02:38:46;;;;;;;17.85;11.15;;;;;;;-0.54;100.00;103860.78;5039070;28;20135;-68
2023/02/08 02:44:27;;;;;;;17.73;11.00;;;;;;;-0.56;100.00;103853.03;5028719;28;20037;-68
2023/02/08 02:47:03;;;;;;;17.70;10.55;;;;;;;-0.54;100.00;103845.31;5030269;28;20052;-67
2023/02/08 02:49:38;;;;;;;20.73;11.20;;;;;;;-0.56;100.00;103847.88;5036190;28;20048;-68
2023/02/08 02:52:10;;;;;;;17.23;11.45;;;;;;;-0.59;100.00;103840.13;5023958;28;20060;-68
2023/02/08 02:54:46;;;;;;;18.92;11.50;;;;;;;-0.65;100.00;103847.88;5039240;28;20076;-68
2023/02/08 02:57:19;;;;;;;22.08;10.68;;;;;;;-0.62;100.00;103853.06;5029087;28;20045;-68
2023/02/08 02:59:45;;;;;;;15.80;10.88;;;;;;;-0.66;100.00;103838.44;5029730;28;20049;-67
2023/02/08 03:02:12;;;;;;;19.10;11.10;;;;;;;-0.70;100.00;103850.47;5033810;28;20053;-68
2023/02/08 03:04:39;;;;;;;17.98;10.38;;;;;;;-0.69;100.00;103848.72;5034285;28;20481;-68
2023/02/08 03:07:19;;;;;;;17.63;11.20;;;;;;;-0.66;100.00;103847.03;5041114;28;20061;-68
2023/02/08 03:10:21;;;;;;;19.00;11.70;;;;;;;-0.68;100.00;103847.91;5032782;28;20080;-68
2023/02/08 03:12:59;;;;;;;16.85;10.95;;;;;;;-0.69;100.00;103847.00;5044354;28;20045;-68
2023/02/08 03:15:35;;;;;;;17.85;11.15;;;;;;;-0.67;100.00;103847.03;5035947;28;20111;-68
2023/02/08 03:18:23;;;;;;;18.17;10.98;;;;;;;-0.68;100.00;103842.75;5033798;28;20058;-68
2023/02/08 03:21:11;;;;;;;18.55;11.70;;;;;;;-0.68;100.00;103845.31;5021335;28;20057;-68
2023/02/08 03:24:07;;;;;;;17.02;10.52;;;;;;;-0.65;100.00;103837.56;5031821;28;20041;-68
2023/02/08 03:26:41;;;;;;;19.30;11.70;;;;;;;-0.69;100.00;103843.56;5016641;28;20049;-68
2023/02/08 03:29:24;;;;;;;18.05;11.63;;;;;;;-0.68;100.00;103845.31;5035888;28;20053;-68
2023/02/08 03:32:02;;;;;;;17.55;11.25;;;;;;;-0.67;100.00;103836.72;5029538;28;20060;-68
2023/02/08 03:34:43;;;;;;;19.25;11.32;;;;;;;-0.75;100.00;103839.28;5028341;28;20458;-68
2023/02/08 03:37:19;;;;;;;19.45;11.80;;;;;;;-0.72;100.00;103839.28;5025682;28;20457;-68
2023/02/08 03:39:49;;;;;;;17.67;11.40;;;;;;;-0.76;100.00;103836.72;5023755;28;20057;-66
2023/02/08 03:42:22;;;;;;;20.05;11.65;;;;;;;-0.83;100.00;103839.28;5032722;28;20056;-68
2023/02/08 03:44:54;;;;;;;17.35;10.55;;;;;;;-0.89;100.00;103839.25;5031092;28;20056;-66
2023/02/08 03:47:27;;;;;;;19.67;11.40;;;;;;;-0.90;100.00;103834.09;5036382;28;20053;-68
2023/02/08 03:49:59;;;;;;;18.70;11.20;;;;;;;-0.95;100.00;103849.56;5021690;28;20071;-68
2023/02/08 03:52:27;;;;;;;19.45;11.68;;;;;;;-1.00;100.00;103840.97;5042600;28;20512;-68
2023/02/08 03:54:59;;;;;;;19.75;12.30;;;;;;;-1.05;100.00;103840.97;5025195;28;20513;-68
2023/02/08 03:57:32;;;;;;;20.83;12.45;;;;;;;-1.06;100.00;103841.84;5024977;28;20473;-68
2023/02/08 04:00:06;;;;;;;17.80;11.45;;;;;;;-1.07;100.00;103842.69;5020710;28;21780;-68
2023/02/08 04:02:37;;;;;;;17.73;10.50;;;;;;;-1.05;100.00;103842.69;5035067;28;20147;-68
2023/02/08 04:05:05;;;;;;;17.50;11.00;;;;;;;-1.12;100.00;103833.22;5034144;28;20095;-68
2023/02/08 04:07:31;;;;;;;18.83;11.85;;;;;;;-1.12;100.00;103838.38;5023115;28;20079;-68
2023/02/08 04:09:58;;;;;;;19.58;12.27;;;;;;;-1.09;100.00;103838.38;5043451;28;20425;-68
2023/02/08 04:12:24;;;;;;;18.65;11.98;;;;;;;-1.07;100.00;103839.25;5027687;28;20044;-68
2023/02/08 04:14:50;;;;;;;17.80;11.68;;;;;;;-1.03;100.00;103836.66;5022284;28;20060;-68
2023/02/08 04:17:17;;;;;;;19.33;11.38;;;;;;;-0.98;100.00;103846.13;5024192;28;20053;-68
2023/02/08 04:19:43;;;;;;;17.00;10.73;;;;;;;-1.00;100.00;103846.13;5026641;28;20056;-68
2023/02/08 04:22:10;;;;;;;18.75;10.75;;;;;;;-0.98;100.00;103847.00;5019204;28;20053;-68
2023/02/08 04:24:36;;;;;;;19.75;11.50;;;;;;;-1.03;100.00;103851.28;5034450;28;20060;-69
2023/02/08 04:27:02;;;;;;;16.75;10.88;;;;;;;-1.00;100.00;103848.69;5040259;28;20041;-68
2023/02/08 04:29:31;;;;;;;18.75;10.95;;;;;;;-1.06;100.00;103857.28;5035855;28;20053;-68
2023/02/08 04:31:59;;;;;;;18.20;11.32;;;;;;;-1.10;100.00;103858.13;5034654;28;20053;-68
2023/02/08 04:34:26;;;;;;;18.55;11.13;;;;;;;-1.07;100.00;103867.59;5023728;28;20446;-65
2023/02/08 04:36:52;;;;;;;19.25;11.52;;;;;;;-1.12;100.00;103867.56;5026698;28;20140;-68
2023/02/08 04:39:19;;;;;;;19.05;10.50;;;;;;;-1.15;100.00;103859.84;5042371;28;20136;-69
2023/02/08 04:41:45;;;;;;;17.98;10.57;;;;;;;-1.10;100.00;103862.41;5020780;28;20506;-68
2023/02/08 04:44:11;;;;;;;18.20;11.55;;;;;;;-1.12;100.00;103859.84;5038459;28;20086;-68
2023/02/08 04:46:38;;;;;;;22.20;12.05;;;;;;;-1.11;100.00;103850.41;5019583;28;20569;-68
2023/02/08 04:49:04;;;;;;;19.65;11.50;;;;;;;-1.11;100.00;103856.41;5022546;28;20084;-68
2023/02/08 04:51:30;;;;;;;17.73;10.77;;;;;;;-1.10;100.00;103852.97;5026457;28;20064;-68
2023/02/08 04:53:57;;;;;;;16.95;10.60;;;;;;;-1.08;100.00;103847.81;5027260;28;20033;-68
2023/02/08 04:56:23;;;;;;;22.00;11.65;;;;;;;-1.07;100.00;103847.84;5029028;28;20064;-68
2023/02/08 04:58:50;;;;;;;19.85;11.13;;;;;;;-1.07;100.00;103845.25;5046469;28;20049;-68
2023/02/08 05:01:16;;;;;;;17.52;10.93;;;;;;;-1.06;100.00;103843.53;5033884;28;20422;-68
2023/02/08 05:03:43;;;;;;;17.52;11.40;;;;;;;-1.04;100.00;103844.38;5017946;28;20421;-68
2023/02/08 05:06:09;;;;;;;18.60;11.18;;;;;;;-1.08;100.00;103840.97;5039256;28;20106;-68
2023/02/08 05:08:36;;;;;;;18.80;10.98;;;;;;;-1.09;100.00;103840.97;5037690;28;20050;-69
2023/02/08 05:11:02;;;;;;;20.88;11.95;;;;;;;-1.14;100.00;103834.94;5031593;28;20080;-69
2023/02/08 05:13:29;;;;;;;18.55;12.15;;;;;;;-1.15;100.00;103834.09;5030681;28;20042;-68
2023/02/08 05:15:55;;;;;;;19.00;11.23;;;;;;;-1.15;100.00;103836.66;5019253;28;20060;-68
2023/02/08 05:18:22;;;;;;;18.45;12.10;;;;;;;-1.15;100.00;103843.53;5029782;28;20518;-68
2023/02/08 05:20:57;;;;;;;19.40;12.55;;;;;;;-1.14;100.00;103840.09;5026469;28;20049;-68
2023/02/08 05:23:24;;;;;;;18.65;11.40;;;;;;;-1.17;100.00;103838.38;5028982;28;20081;-68
2023/02/08 05:25:50;;;;;;;18.27;11.40;;;;;;;-1.24;100.00;103836.63;5023184;28;20049;-68
2023/02/08 05:28:18;;;;;;;26.55;13.18;;;;;;;-1.25;100.00;103835.78;5031546;28;20053;-68
2023/02/08 05:30:45;;;;;;;20.42;12.27;;;;;;;-1.25;100.00;103838.34;5025553;28;20244;-68
2023/02/08 05:33:12;;;;;;;21.55;12.38;;;;;;;-1.32;100.00;103831.44;5032945;28;20059;-68
2023/02/08 05:35:38;;;;;;;20.60;11.85;;;;;;;-1.32;100.00;103838.31;5029707;28;20123;-68
2023/02/08 05:38:05;;;;;;;18.65;11.95;;;;;;;-1.32;100.00;103831.44;5029904;28;20064;-68
2023/02/08 05:40:32;;;;;;;19.92;11.70;;;;;;;-1.31;100.00;103822.03;5034351;28;20053;-68
2023/02/08 05:42:58;;;;;;;23.98;12.02;;;;;;;-1.35;100.00;103821.16;5040733;28;20060;-68
2023/02/08 05:45:25;;;;;;;21.38;13.55;;;;;;;-1.38;100.00;103815.97;5017084;28;20131;-68
2023/02/08 05:47:51;;;;;;;23.55;12.02;;;;;;;-1.35;100.00;103812.53;5032334;28;20110;-68
2023/02/08 05:50:18;;;;;;;23.45;12.68;;;;;;;-1.36;100.00;103816.84;5029661;28;20053;-68
2023/02/08 05:52:44;;;;;;;18.63;12.38;;;;;;;-1.35;100.00;103812.53;5037805;28;20489;-69
2023/02/08 05:55:10;;;;;;;21.77;11.57;;;;;;;-1.36;100.00;103816.00;5031044;28;20513;-68
2023/02/08 05:57:37;;;;;;;19.65;13.20;;;;;;;-1.36;100.00;103819.41;5027793;28;20136;-68
2023/02/08 06:00:04;;;;;;;19.13;12.55;;;;;;;-1.35;100.00;103820.28;5024359;28;20144;-68
2023/02/08 06:02:31;;;;;;;26.50;12.50;;;;;;;-1.36;100.00;103823.72;5035419;28;20048;-68
2023/02/08 06:04:58;;;;;;;21.75;13.10;;;;;;;-1.38;100.00;103828.84;5035500;28;20057;-68
2023/02/08 06:07:24;;;;;;;19.80;12.05;;;;;;;-1.44;100.00;103834.00;5026895;28;20056;-68
2023/02/08 06:09:51;;;;;;;21.48;13.02;;;;;;;-1.45;100.00;103829.69;5033887;28;20045;-68
2023/02/08 06:12:17;;;;;;;20.75;12.43;;;;;;;-1.50;100.00;103826.25;5019563;28;20056;-67
2023/02/08 06:14:44;;;;;;;21.80;12.52;;;;;;;-1.54;100.00;103827.94;5031013;28;20045;-68
2023/02/08 06:17:11;;;;;;;19.83;11.80;;;;;;;-1.57;100.00;103829.66;5036907;28;20057;-69
2023/02/08 06:19:37;;;;;;;21.33;13.30;;;;;;;-1.67;100.00;103821.88;5021139;28;20049;-68
2023/02/08 06:22:03;;;;;;;20.83;12.27;;;;;;;-1.72;100.00;103826.16;5036376;28;20136;-67
2023/02/08 06:24:33;;;;;;;26.73;12.70;;;;;;;-1.76;100.00;103816.72;4996897;28;21509;-68
2023/02/08 06:27:03;;;;;;;22.73;13.07;;;;;;;-1.79;100.00;103808.97;5033619;28;20106;-68
2023/02/08 06:29:30;;;;;;;22.15;12.57;;;;;;;-1.80;100.00;103817.56;5014947;28;20457;-67
2023/02/08 06:31:56;;;;;;;25.73;13.07;;;;;;;-1.83;100.00;103815.81;5024234;28;20060;-68
2023/02/08 06:34:23;;;;;;;20.35;12.40;;;;;;;-1.85;100.00;103814.94;5042634;28;20071;-68
2023/02/08 06:36:49;;;;;;;20.75;12.55;;;;;;;-1.83;100.00;103822.69;5013387;28;20100;-70
2023/02/08 06:39:18;;;;;;;21.00;12.60;;;;;;;-1.88;100.00;103820.09;5024244;28;20056;-67
2023/02/08 06:41:44;;;;;;;20.92;13.43;;;;;;;-1.91;100.00;103819.22;5028782;28;20081;-68
2023/02/08 06:44:11;;;;;;;21.75;12.90;;;;;;;-1.92;100.00;103827.75;5031980;28;20614;-67
2023/02/08 06:46:37;;;;;;;20.98;12.38;;;;;;;-1.94;100.00;103814.91;5026117;28;20053;-68
2023/02/08 06:49:04;;;;;;;23.13;13.00;;;;;;;-1.97;100.00;103821.75;5035056;28;20052;-66
2023/02/08 06:51:31;;;;;;;20.23;13.00;;;;;;;-1.99;100.00;103820.03;5034052;28;20045;-68
2023/02/08 06:53:57;;;;;;;18.85;11.65;;;;;;;-2.03;100.00;103823.44;5033855;28;20539;-67
2023/02/08 06:56:24;;;;;;;22.25;13.20;;;;;;;-2.04;100.00;103820.84;5041817;28;20379;-67
2023/02/08 06:58:50;;;;;;;20.13;12.23;;;;;;;-2.06;100.00;103817.41;5041421;28;20057;-66
2023/02/08 07:01:17;;;;;;;22.35;12.40;;;;;;;-2.04;100.00;103819.16;5044110;28;20064;-66
2023/02/08 07:03:43;;;;;;;19.50;11.55;;;;;;;-2.01;100.00;103824.28;5037117;28;20048;-67
2023/02/08 07:06:12;;;;;;;23.65;12.95;;;;;;;-1.99;100.00;103822.59;5032039;28;20049;-66
2023/02/08 07:08:39;;;;;;;21.92;12.38;;;;;;;-2.03;100.00;103825.16;5027939;28;20465;-66
2023/02/08 07:11:10;;;;;;;23.27;13.18;;;;;;;-1.99;100.00;103826.88;5022992;28;20085;-66
2023/02/08 07:13:37;;;;;;;20.92;12.80;;;;;;;-2.07;100.00;103818.28;5044524;28;20077;-68
2023/02/08 07:16:06;;;;;;;26.67;13.82;;;;;;;-2.03;100.00;103814.84;5035729;28;20493;-70
2023/02/08 07:18:33;;;;;;;24.20;14.80;;;;;;;-2.02;100.00;103814.88;5037684;28;20170;-66
2023/02/08 07:21:00;;;;;;;29.77;15.32;;;;;;;-2.02;100.00;103814.88;5017678;28;20053;-66
2023/02/08 07:23:26;;;;;;;26.42;14.90;;;;;;;-1.99;100.00;103819.16;5031746;28;20049;-66
2023/02/08 07:26:05;;;;;;;27.05;14.75;;;;;;;-1.95;100.00;103810.59;5030960;28;20060;-66
2023/02/08 07:28:32;;;;;;;24.48;13.73;;;;;;;-2.02;100.00;103809.72;5010780;28;20057;-67
2023/02/08 07:30:58;;;;;;;21.70;13.18;;;;;;;-2.00;100.00;103805.44;5022260;28;20052;-66
2023/02/08 07:33:25;;;;;;;24.20;14.00;;;;;;;-2.00;100.00;103807.13;5024804;28;20048;-66
2023/02/08 07:35:51;;;;;;;21.85;13.75;;;;;;;-1.99;100.00;103801.16;5046788;28;20051;-66
2023/02/08 07:38:18;;;;;;;23.45;12.73;;;;;;;-1.96;100.00;103797.72;5030239;28;20050;-66
2023/02/08 07:40:46;;;;;;;27.23;13.75;;;;;;;-1.94;100.00;103790.88;5028341;28;20077;-66
2023/02/08 07:43:13;;;;;;;25.95;13.82;;;;;;;-1.94;100.00;103794.34;5028497;28;20122;-66
2023/02/08 07:45:39;;;;;;;23.27;14.13;;;;;;;-1.90;100.00;103793.50;5028824;28;20402;-66
2023/02/08 07:48:05;;;;;;;23.17;13.32;;;;;;;-1.86;100.00;103790.06;5029490;28;20084;-66
2023/02/08 07:50:32;;;;;;;20.95;12.65;;;;;;;-1.85;100.00;103798.66;5030295;28;20061;-66
2023/02/08 07:52:59;;;;;;;21.10;13.55;;;;;;;-1.83;100.00;103804.66;5017885;28;20053;-66
2023/02/08 07:55:26;;;;;;;19.85;12.45;;;;;;;-1.82;100.00;103807.25;5040604;28;20051;-65
2023/02/08 07:57:54;;;;;;;23.40;13.40;;;;;;;-1.77;100.00;103808.97;5020758;28;20077;-67
2023/02/08 08:00:21;;;;;;;20.80;13.07;;;;;;;-1.76;100.00;103806.41;5029888;28;20049;-66
2023/02/08 08:02:49;;;;;;;19.95;12.55;;;;;;;-1.73;100.00;103808.13;5028876;28;20083;-66
2023/02/08 08:05:16;;;;;;;23.50;13.35;;;;;;;-1.73;100.00;103810.72;5030117;28;20085;-66
2023/02/08 08:07:42;;;;;;;24.50;13.05;;;;;;;-1.70;100.00;103809.00;5013619;28;20058;-66
2023/02/08 08:10:09;;;;;;;19.88;12.13;;;;;;;-1.69;100.00;103807.28;5040202;28;20481;-66
2023/02/08 08:12:35;;;;;;;23.35;13.88;;;;;;;-1.64;100.00;103803.88;5031623;28;20060;-67
2023/02/08 08:15:02;;;;;;;19.85;12.65;;;;;;;-1.56;100.00;103811.63;5036289;28;20056;-66
2023/02/08 08:17:28;;;;;;;20.92;12.73;;;;;;;-1.50;100.00;103811.66;5039203;28;20429;-65
2023/02/08 08:19:55;;;;;;;21.23;12.57;;;;;;;-1.44;100.00;103800.53;5029006;28;20132;-66
2023/02/08 08:22:21;;;;;;;23.15;12.63;;;;;;;-1.38;100.00;103804.84;5039689;28;20485;-66
2023/02/08 08:24:48;;;;;;;20.92;12.43;;;;;;;-1.35;100.00;103797.09;5027908;28;20057;-66
2023/02/08 08:27:15;;;;;;;21.33;12.25;;;;;;;-1.30;100.00;103803.13;5033745;28;20566;-67
2023/02/08 08:29:41;;;;;;;22.27;12.73;;;;;;;-1.23;100.00;103800.56;5032594;28;20065;-67
2023/02/08 08:32:08;;;;;;;23.42;13.15;;;;;;;-1.17;100.00;103806.59;5041267;28;20049;-66
2023/02/08 08:34:37;;;;;;;21.08;12.82;;;;;;;-1.14;100.00;103804.03;5032169;28;20052;-66
2023/02/08 08:37:03;;;;;;;19.67;13.27;;;;;;;-1.10;100.00;103798.00;5024563;28;20064;-66
2023/02/08 08:39:30;;;;;;;20.55;12.90;;;;;;;-1.04;100.00;103796.31;5026312;28;20136;-67
2023/02/08 08:41:58;;;;;;;20.75;12.88;;;;;;;-0.97;100.00;103794.59;5021177;28;20091;-66
2023/02/08 08:44:26;;;;;;;22.75;12.23;;;;;;;-0.95;100.00;103785.16;5027044;28;20057;-67
2023/02/08 08:46:56;;;;;;;20.98;13.77;;;;;;;-0.88;100.00;103792.03;5022293;28;20053;-67
2023/02/08 08:49:25;;;;;;;21.40;12.80;;;;;;;-0.87;100.00;103790.31;5040089;28;20053;-68
2023/02/08 08:51:52;;;;;;;18.90;11.25;;;;;;;-0.81;100.00;103788.56;5013765;28;20052;-67
2023/02/08 08:54:20;;;;;;;20.00;12.68;;;;;;;-0.76;100.00;103782.59;5024238;28;20303;-67
2023/02/08 08:56:47;;;;;;;23.50;12.87;;;;;;;-0.70;100.00;103785.16;5034084;28;20081;-67
2023/02/08 08:59:13;;;;;;;23.27;13.38;;;;;;;-0.66;100.00;103781.72;5023907;28;20053;-67
2023/02/08 09:01:41;;;;;;;21.35;12.73;;;;;;;-0.64;100.00;103778.28;5024598;28;20613;-67
2023/02/08 09:04:09;;;;;;;28.25;14.82;;;;;;;-0.60;100.00;103774.81;5029692;28;20128;-67
2023/02/08 09:06:36;;;;;;;19.70;12.23;;;;;;;-0.53;100.00;103775.69;5026752;28;20057;-67
2023/02/08 09:09:04;;;;;;;19.48;11.82;;;;;;;-0.49;100.00;103776.53;5037966;28;20053;-67
2023/02/08 09:11:32;;;;;;;22.60;13.52;;;;;;;-0.42;100.00;103783.41;5042570;28;20045;-68
2023/02/08 09:14:01;;;;;;;20.40;12.27;;;;;;;-0.37;100.00;103781.69;5038970;28;20048;-66
2023/02/08 09:16:31;;;;;;;18.70;10.15;;;;;;;-0.27;100.00;103788.53;5026879;28;20053;-66
2023/02/08 09:19:05;;;;;;;15.73;9.50;;;;;;;-0.14;100.00;103773.88;5034984;28;20126;-67
2023/02/08 09:21:32;;;;;;;15.65;9.73;;;;;;;-0.07;100.00;103773.00;5020153;28;20313;-67
2023/02/08 09:24:03;;;;;;;14.20;8.73;;;;;;;0.07;99.83;103774.69;5030042;28;20520;-67
2023/02/08 09:26:29;;;;;;;17.83;9.75;;;;;;;0.09;98.96;103778.09;5034278;28;20056;-67
2023/02/08 09:28:56;;;;;;;14.82;9.57;;;;;;;0.16;97.57;103772.06;5038671;28;20053;-67
2023/02/08 09:31:25;;;;;;;14.27;8.82;;;;;;;0.31;98.33;103765.97;5035759;28;20064;-67
2023/02/08 09:33:54;;;;;;;14.70;8.65;;;;;;;0.38;95.35;103773.66;5015384;28;20049;-67
2023/02/08 09:36:22;;;;;;;13.30;8.30;;;;;;;0.47;96.96;103777.06;5026794;28;20053;-67
2023/02/08 09:38:50;;;;;;;14.57;8.25;;;;;;;0.50;89.08;103775.31;5034689;28;20528;-67
2023/02/08 09:41:55;;;;;;;13.27;7.93;;;;;;;0.66;88.82;103791.59;5033073;28;20060;-67
2023/02/08 09:44:42;;;;;;;11.05;7.15;;;;;;;0.77;86.69;103791.53;5028337;28;20052;-67
2023/02/08 09:47:22;;;;;;;16.10;7.80;;;;;;;0.85;88.48;103794.94;5036568;28;20045;-67
2023/02/08 09:50:02;;;;;;;11.02;6.90;;;;;;;0.91;86.69;103802.63;5032357;28;20057;-67
2023/02/08 09:52:38;;;;;;;12.65;7.40;;;;;;;0.93;88.45;103797.47;5032038;28;20053;-67
2023/02/08 09:55:23;;;;;;;11.35;7.10;;;;;;;0.99;85.86;103793.09;5027288;28;20049;-67
2023/02/08 09:57:52;;;;;;;15.20;8.50;;;;;;;1.03;85.73;103801.69;5032487;28;20079;-67
2023/02/08 10:00:29;;;;;;;12.55;7.20;;;;;;;1.16;88.47;103794.72;5024347;28;20084;-67
2023/02/08 10:02:58;;;;;;;15.23;8.88;;;;;;;1.18;89.81;103805.91;5022808;28;20942;-67
2023/02/08 10:05:28;;;;;;;12.02;7.57;;;;;;;1.23;87.72;103801.53;5043016;28;20094;-67
2023/02/08 10:07:57;;;;;;;14.35;8.07;;;;;;;1.26;88.03;103805.84;5025921;28;20069;-67
2023/02/08 10:10:43;;;;;;;12.93;7.78;;;;;;;1.30;86.56;103802.34;5016322;28;20320;-67
2023/02/08 10:13:28;;;;;;;13.30;8.23;;;;;;;1.32;90.68;103804.03;5017065;28;20136;-67
2023/02/08 10:16:28;;;;;;;15.00;8.93;;;;;;;1.33;89.41;103799.72;5026440;28;20494;-67
2023/02/08 10:19:02;;;;;;;11.88;7.20;;;;;;;1.38;88.41;103809.16;5033964;28;20053;-67
2023/02/08 10:21:44;;;;;;;16.85;8.25;;;;;;;1.48;87.71;103809.94;5021858;28;20133;-67
2023/02/08 10:24:30;;;;;;;13.32;7.25;;;;;;;1.59;89.08;103809.84;5030403;28;20692;-67
2023/02/08 10:27:04;;;;;;;12.88;7.72;;;;;;;1.68;84.77;103812.31;5024908;28;20172;-67
2023/02/08 10:29:41;;;;;;;13.85;7.85;;;;;;;1.71;84.49;103811.47;5020958;28;21628;-67
2023/02/08 10:32:38;;;;;;;16.83;8.15;;;;;;;1.85;85.19;103816.50;5038607;28;20122;-67
2023/02/08 10:35:13;;;;;;;13.07;8.13;;;;;;;1.89;88.57;103807.81;5027773;28;20102;-67
2023/02/08 10:37:43;;;;;;;13.45;8.02;;;;;;;1.96;85.49;103807.72;5034114;28;20077;-67
2023/02/08 10:40:38;;;;;;;15.73;7.97;;;;;;;2.05;84.49;103803.31;5041326;28;20044;-67
2023/02/08 10:43:21;;;;;;;13.73;8.40;;;;;;;2.13;82.88;103804.94;5045771;28;20048;-66
2023/02/08 10:46:00;;;;;;;15.35;8.90;;;;;;;2.27;81.19;103806.50;5048119;28;20079;-67
2023/02/08 10:49:10;;;;;;;13.00;8.00;;;;;;;2.41;82.50;103814.97;5041288;28;20048;-65
2023/02/08 10:51:41;;;;;;;;;;;;;;;2.50;83.44;103798.44;5037143;28;20049;-65
2023/02/08 10:54:12;;;;;;;14.90;6.65;;;;;;;2.56;87.43;103794.00;5026406;28;20172;-66
2023/02/08 10:56:56;;;;;;;15.57;8.30;;;;;;;2.68;81.87;103799.91;5038421;28;20076;-65
2023/02/08 10:59:28;;;;;;;11.65;6.55;;;;;;;2.83;79.22;103797.09;5023230;28;20538;-67
2023/02/08 11:01:55;;;;;;;13.45;6.72;;;;;;;2.97;77.05;103791.69;5032158;28;20614;-66
2023/02/08 11:04:22;;;;;;;15.32;7.65;;;;;;;3.09;79.82;103788.91;5030702;28;20067;-66
2023/02/08 11:07:01;;;;;;;14.23;7.03;;;;;;;3.20;79.65;103780.97;5029386;28;20045;-66
2023/02/08 11:09:30;;;;;;;12.25;6.65;;;;;;;3.33;77.80;103766.91;5033671;28;20135;-66
2023/02/08 11:12:01;;;;;;;13.48;7.43;;;;;;;3.43;75.99;103767.59;5046959;28;20063;-66
2023/02/08 11:14:46;;;;;;;9.25;5.72;;;;;;;3.67;75.82;103770.63;5044089;28;20057;-65
2023/02/08 11:17:31;;;;;;;11.45;7.25;;;;;;;3.83;74.97;103773.78;5032697;28;20047;-65
2023/02/08 11:20:25;;;;;;;20.95;6.35;;;;;;;4.02;69.19;103771.63;5033609;28;20540;-66
2023/02/08 11:22:54;;;;;;;9.93;5.25;;;;;;;4.13;64.41;103761.88;5040766;28;20493;-66
2023/02/08 11:25:38;;;;;;;13.15;6.05;;;;;;;4.30;63.87;103759.78;5041853;28;20414;-66